sensor_id;sensor_type;location;lat;lon;timestamp;P1;durP1;ratioP1;P2;durP2;ratioP2
75626;SDS011;64211;49.404;11.034;2022-11-15T00:01:54;10.73;;;6.13;;
75626;SDS011;64211;49.404;11.034;2022-11-15T00:04:20;14.10;;;6.63;;
75626;SDS011;64211;49.404;11.034;2022-11-15T00:06:46;17.55;;;7.38;;
75626;SDS011;64211;49.404;11.034;2022-11-15T00:09:12;13.52;;;6.53;;
75626;SDS011;64211;49.404;11.034;2022-11-15T00:11:37;13.52;;;6.32;;
75626;SDS011;64211;49.404;11.034;2022-11-15T00:14:03;12.63;;;6.05;;
75626;SDS011;64211;49.404;11.034;2022-11-15T00:16:29;13.75;;;6.65;;
75626;SDS011;64211;49.404;11.034;2022-11-15T00:18:54;13.02;;;6.45;;
75626;SDS011;64211;49.404;11.034;2022-11-15T00:21:20;12.30;;;6.32;;
75626;SDS011;64211;49.404;11.034;2022-11-15T00:23:46;11.73;;;6.13;;
75626;SDS011;64211;49.404;11.034;2022-11-15T00:26:13;12.60;;;6.05;;
75626;SDS011;64211;49.404;11.034;2022-11-15T00:28:40;11.88;;;6.00;;
75626;SDS011;64211;49.404;11.034;2022-11-15T00:31:09;11.95;;;6.05;;
75626;SDS011;64211;49.404;11.034;2022-11-15T00:33:38;13.23;;;5.93;;
75626;SDS011;64211;49.404;11.034;2022-11-15T00:36:05;14.55;;;6.22;;
75626;SDS011;64211;49.404;11.034;2022-11-15T00:38:33;11.55;;;5.90;;
75626;SDS011;64211;49.404;11.034;2022-11-15T00:41:00;13.90;;;6.55;;
75626;SDS011;64211;49.404;11.034;2022-11-15T00:43:34;9.70;;;5.68;;
75626;SDS011;64211;49.404;11.034;2022-11-15T00:46:00;11.20;;;6.05;;
75626;SDS011;64211;49.404;11.034;2022-11-15T00:48:27;10.68;;;5.97;;
75626;SDS011;64211;49.404;11.034;2022-11-15T00:50:53;11.95;;;6.40;;
75626;SDS011;64211;49.404;11.034;2022-11-15T00:53:19;12.40;;;6.15;;
75626;SDS011;64211;49.404;11.034;2022-11-15T00:55:45;13.82;;;6.53;;
75626;SDS011;64211;49.404;11.034;2022-11-15T00:58:11;13.27;;;6.47;;
75626;SDS011;64211;49.404;11.034;2022-11-15T01:00:37;11.40;;;5.80;;
75626;SDS011;64211;49.404;11.034;2022-11-15T01:03:03;13.13;;;6.18;;
75626;SDS011;64211;49.404;11.034;2022-11-15T01:05:29;10.75;;;6.03;;
75626;SDS011;64211;49.404;11.034;2022-11-15T01:07:55;14.75;;;6.93;;
75626;SDS011;64211;49.404;11.034;2022-11-15T01:10:21;13.80;;;6.82;;
75626;SDS011;64211;49.404;11.034;2022-11-15T01:12:48;14.30;;;7.00;;
75626;SDS011;64211;49.404;11.034;2022-11-15T01:15:14;12.32;;;6.03;;
75626;SDS011;64211;49.404;11.034;2022-11-15T01:17:40;11.20;;;5.68;;
75626;SDS011;64211;49.404;11.034;2022-11-15T01:20:05;10.45;;;5.75;;
75626;SDS011;64211;49.404;11.034;2022-11-15T01:22:32;16.02;;;6.47;;
75626;SDS011;64211;49.404;11.034;2022-11-15T01:24:58;15.93;;;6.35;;
75626;SDS011;64211;49.404;11.034;2022-11-15T01:27:23;13.13;;;6.40;;
75626;SDS011;64211;49.404;11.034;2022-11-15T01:29:49;16.80;;;6.57;;
75626;SDS011;64211;49.404;11.034;2022-11-15T01:32:15;13.43;;;7.18;;
75626;SDS011;64211;49.404;11.034;2022-11-15T01:34:41;13.60;;;6.10;;
75626;SDS011;64211;49.404;11.034;2022-11-15T01:37:07;13.18;;;6.63;;
75626;SDS011;64211;49.404;11.034;2022-11-15T01:39:33;12.65;;;6.55;;
75626;SDS011;64211;49.404;11.034;2022-11-15T01:41:58;12.95;;;6.05;;
75626;SDS011;64211;49.404;11.034;2022-11-15T01:46:56;10.88;;;5.75;;
75626;SDS011;64211;49.404;11.034;2022-11-15T01:49:23;12.80;;;6.35;;
75626;SDS011;64211;49.404;11.034;2022-11-15T01:51:49;12.43;;;5.95;;
75626;SDS011;64211;49.404;11.034;2022-11-15T01:54:17;13.32;;;6.43;;
75626;SDS011;64211;49.404;11.034;2022-11-15T01:56:56;12.35;;;5.75;;
75626;SDS011;64211;49.404;11.034;2022-11-15T01:59:27;14.82;;;6.68;;
75626;SDS011;64211;49.404;11.034;2022-11-15T02:01:53;16.67;;;6.30;;
75626;SDS011;64211;49.404;11.034;2022-11-15T02:04:20;14.68;;;5.85;;
75626;SDS011;64211;49.404;11.034;2022-11-15T02:06:51;13.52;;;6.97;;
75626;SDS011;64211;49.404;11.034;2022-11-15T02:09:17;12.70;;;6.05;;
75626;SDS011;64211;49.404;11.034;2022-11-15T02:11:43;13.65;;;6.30;;
75626;SDS011;64211;49.404;11.034;2022-11-15T02:19:22;12.60;;;5.60;;
75626;SDS011;64211;49.404;11.034;2022-11-15T02:21:59;10.52;;;5.95;;
75626;SDS011;64211;49.404;11.034;2022-11-15T02:24:35;13.75;;;6.53;;
75626;SDS011;64211;49.404;11.034;2022-11-15T02:30:21;12.27;;;6.03;;
75626;SDS011;64211;49.404;11.034;2022-11-15T02:32:54;12.77;;;6.15;;
75626;SDS011;64211;49.404;11.034;2022-11-15T02:37:59;11.57;;;5.93;;
75626;SDS011;64211;49.404;11.034;2022-11-15T02:43:21;12.15;;;6.03;;
75626;SDS011;64211;49.404;11.034;2022-11-15T02:49:24;10.38;;;4.97;;
75626;SDS011;64211;49.404;11.034;2022-11-15T02:51:53;14.13;;;6.20;;
75626;SDS011;64211;49.404;11.034;2022-11-15T02:56:52;13.95;;;5.93;;
75626;SDS011;64211;49.404;11.034;2022-11-15T03:08:12;11.30;;;5.82;;
75626;SDS011;64211;49.404;11.034;2022-11-15T03:11:08;11.82;;;5.32;;
75626;SDS011;64211;49.404;11.034;2022-11-15T03:16:29;12.95;;;5.40;;
75626;SDS011;64211;49.404;11.034;2022-11-15T03:19:07;13.98;;;6.72;;
75626;SDS011;64211;49.404;11.034;2022-11-15T03:21:54;12.18;;;6.15;;
75626;SDS011;64211;49.404;11.034;2022-11-15T03:24:23;13.77;;;5.93;;
75626;SDS011;64211;49.404;11.034;2022-11-15T03:26:53;13.73;;;6.15;;
75626;SDS011;64211;49.404;11.034;2022-11-15T03:29:28;13.00;;;5.68;;
75626;SDS011;64211;49.404;11.034;2022-11-15T03:32:02;14.35;;;6.32;;
75626;SDS011;64211;49.404;11.034;2022-11-15T03:37:07;12.02;;;5.90;;
75626;SDS011;64211;49.404;11.034;2022-11-15T03:39:35;13.50;;;6.38;;
75626;SDS011;64211;49.404;11.034;2022-11-15T03:49:59;14.15;;;6.28;;
75626;SDS011;64211;49.404;11.034;2022-11-15T03:52:33;15.32;;;6.50;;
75626;SDS011;64211;49.404;11.034;2022-11-15T03:55:00;12.60;;;6.07;;
75626;SDS011;64211;49.404;11.034;2022-11-15T03:57:28;13.63;;;5.55;;
75626;SDS011;64211;49.404;11.034;2022-11-15T03:59:54;11.52;;;5.47;;
75626;SDS011;64211;49.404;11.034;2022-11-15T04:02:19;12.05;;;5.60;;
75626;SDS011;64211;49.404;11.034;2022-11-15T04:04:45;13.57;;;5.65;;
75626;SDS011;64211;49.404;11.034;2022-11-15T04:07:11;11.15;;;5.65;;
75626;SDS011;64211;49.404;11.034;2022-11-15T04:09:37;11.40;;;5.43;;
75626;SDS011;64211;49.404;11.034;2022-11-15T04:12:23;12.48;;;5.97;;
75626;SDS011;64211;49.404;11.034;2022-11-15T04:15:05;12.05;;;5.78;;
75626;SDS011;64211;49.404;11.034;2022-11-15T04:17:43;12.45;;;5.93;;
75626;SDS011;64211;49.404;11.034;2022-11-15T04:20:13;14.85;;;6.80;;
75626;SDS011;64211;49.404;11.034;2022-11-15T04:23:03;10.55;;;6.13;;
75626;SDS011;64211;49.404;11.034;2022-11-15T04:25:49;11.90;;;5.65;;
75626;SDS011;64211;49.404;11.034;2022-11-15T04:28:17;13.90;;;6.38;;
75626;SDS011;64211;49.404;11.034;2022-11-15T04:30:43;13.50;;;5.88;;
75626;SDS011;64211;49.404;11.034;2022-11-15T04:33:09;12.25;;;6.60;;
75626;SDS011;64211;49.404;11.034;2022-11-15T04:35:35;11.25;;;6.00;;
75626;SDS011;64211;49.404;11.034;2022-11-15T04:38:01;11.50;;;5.72;;
75626;SDS011;64211;49.404;11.034;2022-11-15T04:40:28;13.38;;;5.93;;
75626;SDS011;64211;49.404;11.034;2022-11-15T04:42:53;12.73;;;6.43;;
75626;SDS011;64211;49.404;11.034;2022-11-15T04:45:27;12.07;;;5.72;;
75626;SDS011;64211;49.404;11.034;2022-11-15T04:47:53;14.82;;;6.63;;
75626;SDS011;64211;49.404;11.034;2022-11-15T04:50:18;12.82;;;6.28;;
75626;SDS011;64211;49.404;11.034;2022-11-15T04:52:50;13.27;;;5.70;;
75626;SDS011;64211;49.404;11.034;2022-11-15T04:55:17;13.23;;;6.18;;
75626;SDS011;64211;49.404;11.034;2022-11-15T04:57:43;11.30;;;5.93;;
75626;SDS011;64211;49.404;11.034;2022-11-15T05:00:10;11.30;;;6.07;;
75626;SDS011;64211;49.404;11.034;2022-11-15T05:02:38;12.10;;;5.43;;
75626;SDS011;64211;49.404;11.034;2022-11-15T05:05:23;12.45;;;5.45;;
75626;SDS011;64211;49.404;11.034;2022-11-15T05:07:49;14.13;;;6.25;;
75626;SDS011;64211;49.404;11.034;2022-11-15T05:10:15;13.35;;;6.63;;
75626;SDS011;64211;49.404;11.034;2022-11-15T05:12:41;14.38;;;6.68;;
75626;SDS011;64211;49.404;11.034;2022-11-15T05:15:06;16.67;;;7.47;;
75626;SDS011;64211;49.404;11.034;2022-11-15T05:17:33;14.13;;;6.75;;
75626;SDS011;64211;49.404;11.034;2022-11-15T05:19:58;14.52;;;7.03;;
75626;SDS011;64211;49.404;11.034;2022-11-15T05:22:24;13.13;;;6.57;;
75626;SDS011;64211;49.404;11.034;2022-11-15T05:24:50;13.45;;;6.97;;
75626;SDS011;64211;49.404;11.034;2022-11-15T05:27:16;11.05;;;5.93;;
75626;SDS011;64211;49.404;11.034;2022-11-15T05:29:41;8.52;;;4.95;;
75626;SDS011;64211;49.404;11.034;2022-11-15T05:32:08;11.20;;;5.50;;
75626;SDS011;64211;49.404;11.034;2022-11-15T05:34:35;12.13;;;5.70;;
75626;SDS011;64211;49.404;11.034;2022-11-15T05:37:01;11.90;;;6.15;;
75626;SDS011;64211;49.404;11.034;2022-11-15T05:39:28;11.32;;;5.53;;
75626;SDS011;64211;49.404;11.034;2022-11-15T05:41:55;12.63;;;5.55;;
75626;SDS011;64211;49.404;11.034;2022-11-15T05:44:26;10.60;;;5.45;;
75626;SDS011;64211;49.404;11.034;2022-11-15T05:46:52;9.27;;;4.82;;
75626;SDS011;64211;49.404;11.034;2022-11-15T05:49:22;12.32;;;5.35;;
75626;SDS011;64211;49.404;11.034;2022-11-15T05:51:50;13.38;;;6.53;;
75626;SDS011;64211;49.404;11.034;2022-11-15T05:54:18;11.82;;;5.63;;
75626;SDS011;64211;49.404;11.034;2022-11-15T05:56:46;12.68;;;5.53;;
75626;SDS011;64211;49.404;11.034;2022-11-15T05:59:12;10.45;;;5.18;;
75626;SDS011;64211;49.404;11.034;2022-11-15T06:01:38;13.43;;;5.85;;
75626;SDS011;64211;49.404;11.034;2022-11-15T06:04:05;13.55;;;6.53;;
75626;SDS011;64211;49.404;11.034;2022-11-15T06:06:31;13.73;;;6.63;;
75626;SDS011;64211;49.404;11.034;2022-11-15T06:08:57;12.23;;;5.70;;
75626;SDS011;64211;49.404;11.034;2022-11-15T06:11:23;10.95;;;5.57;;
75626;SDS011;64211;49.404;11.034;2022-11-15T06:13:48;12.75;;;5.55;;
75626;SDS011;64211;49.404;11.034;2022-11-15T06:16:14;11.00;;;5.32;;
75626;SDS011;64211;49.404;11.034;2022-11-15T06:18:40;12.68;;;6.18;;
75626;SDS011;64211;49.404;11.034;2022-11-15T06:21:06;14.73;;;6.78;;
75626;SDS011;64211;49.404;11.034;2022-11-15T06:23:32;14.57;;;6.60;;
75626;SDS011;64211;49.404;11.034;2022-11-15T06:28:32;10.00;;;5.32;;
75626;SDS011;64211;49.404;11.034;2022-11-15T06:31:02;11.48;;;5.85;;
75626;SDS011;64211;49.404;11.034;2022-11-15T06:33:31;9.57;;;5.22;;
75626;SDS011;64211;49.404;11.034;2022-11-15T06:36:02;11.65;;;6.13;;
75626;SDS011;64211;49.404;11.034;2022-11-15T06:38:28;11.48;;;6.18;;
75626;SDS011;64211;49.404;11.034;2022-11-15T06:40:54;13.25;;;6.85;;
75626;SDS011;64211;49.404;11.034;2022-11-15T06:43:20;14.25;;;7.28;;
75626;SDS011;64211;49.404;11.034;2022-11-15T06:45:45;13.32;;;6.55;;
75626;SDS011;64211;49.404;11.034;2022-11-15T06:48:11;14.10;;;6.82;;
75626;SDS011;64211;49.404;11.034;2022-11-15T06:50:37;11.23;;;5.88;;
75626;SDS011;64211;49.404;11.034;2022-11-15T06:53:03;14.35;;;7.45;;
75626;SDS011;64211;49.404;11.034;2022-11-15T06:55:29;14.75;;;6.80;;
75626;SDS011;64211;49.404;11.034;2022-11-15T06:57:55;12.23;;;6.40;;
75626;SDS011;64211;49.404;11.034;2022-11-15T07:00:21;11.75;;;6.57;;
75626;SDS011;64211;49.404;11.034;2022-11-15T07:02:48;12.88;;;6.30;;
75626;SDS011;64211;49.404;11.034;2022-11-15T07:05:14;12.35;;;6.32;;
75626;SDS011;64211;49.404;11.034;2022-11-15T07:07:41;17.33;;;8.95;;
75626;SDS011;64211;49.404;11.034;2022-11-15T07:10:07;16.25;;;8.27;;
75626;SDS011;64211;49.404;11.034;2022-11-15T07:12:33;14.20;;;6.90;;
75626;SDS011;64211;49.404;11.034;2022-11-15T07:14:59;14.23;;;7.80;;
75626;SDS011;64211;49.404;11.034;2022-11-15T07:17:25;13.80;;;8.55;;
75626;SDS011;64211;49.404;11.034;2022-11-15T07:19:51;17.65;;;8.32;;
75626;SDS011;64211;49.404;11.034;2022-11-15T07:22:16;16.30;;;7.22;;
75626;SDS011;64211;49.404;11.034;2022-11-15T07:24:42;12.35;;;6.28;;
75626;SDS011;64211;49.404;11.034;2022-11-15T07:27:08;11.85;;;5.72;;
75626;SDS011;64211;49.404;11.034;2022-11-15T07:29:34;11.90;;;5.30;;
75626;SDS011;64211;49.404;11.034;2022-11-15T07:31:59;8.48;;;4.82;;
75626;SDS011;64211;49.404;11.034;2022-11-15T07:34:25;9.77;;;5.22;;
75626;SDS011;64211;49.404;11.034;2022-11-15T07:36:51;11.10;;;5.43;;
75626;SDS011;64211;49.404;11.034;2022-11-15T07:39:17;11.27;;;5.68;;
75626;SDS011;64211;49.404;11.034;2022-11-15T07:41:42;10.23;;;5.38;;
75626;SDS011;64211;49.404;11.034;2022-11-15T07:44:08;9.63;;;5.63;;
75626;SDS011;64211;49.404;11.034;2022-11-15T07:46:34;11.00;;;5.28;;
75626;SDS011;64211;49.404;11.034;2022-11-15T07:49:00;11.50;;;5.93;;
75626;SDS011;64211;49.404;11.034;2022-11-15T07:51:26;13.57;;;5.80;;
75626;SDS011;64211;49.404;11.034;2022-11-15T07:53:52;10.63;;;5.50;;
75626;SDS011;64211;49.404;11.034;2022-11-15T07:56:17;11.00;;;5.88;;
75626;SDS011;64211;49.404;11.034;2022-11-15T07:58:45;12.60;;;6.50;;
75626;SDS011;64211;49.404;11.034;2022-11-15T08:01:11;14.88;;;7.63;;
75626;SDS011;64211;49.404;11.034;2022-11-15T08:03:38;13.63;;;7.05;;
75626;SDS011;64211;49.404;11.034;2022-11-15T08:06:04;11.75;;;6.00;;
75626;SDS011;64211;49.404;11.034;2022-11-15T08:08:29;12.18;;;6.05;;
75626;SDS011;64211;49.404;11.034;2022-11-15T08:10:57;11.27;;;5.85;;
75626;SDS011;64211;49.404;11.034;2022-11-15T08:13:23;10.43;;;5.75;;
75626;SDS011;64211;49.404;11.034;2022-11-15T08:15:49;10.32;;;5.20;;
75626;SDS011;64211;49.404;11.034;2022-11-15T08:18:22;9.07;;;5.07;;
75626;SDS011;64211;49.404;11.034;2022-11-15T08:20:48;9.35;;;5.40;;
75626;SDS011;64211;49.404;11.034;2022-11-15T08:23:14;10.27;;;5.15;;
75626;SDS011;64211;49.404;11.034;2022-11-15T08:25:39;12.43;;;5.85;;
75626;SDS011;64211;49.404;11.034;2022-11-15T08:28:06;9.25;;;4.90;;
75626;SDS011;64211;49.404;11.034;2022-11-15T08:33:09;10.80;;;5.30;;
75626;SDS011;64211;49.404;11.034;2022-11-15T08:35:36;10.35;;;5.30;;
75626;SDS011;64211;49.404;11.034;2022-11-15T08:38:01;8.98;;;5.03;;
75626;SDS011;64211;49.404;11.034;2022-11-15T08:40:27;8.73;;;4.30;;
75626;SDS011;64211;49.404;11.034;2022-11-15T08:42:53;9.25;;;4.63;;
75626;SDS011;64211;49.404;11.034;2022-11-15T08:45:19;9.85;;;4.97;;
75626;SDS011;64211;49.404;11.034;2022-11-15T08:47:45;8.70;;;5.03;;
75626;SDS011;64211;49.404;11.034;2022-11-15T08:50:17;11.27;;;5.25;;
75626;SDS011;64211;49.404;11.034;2022-11-15T08:52:43;9.13;;;5.15;;
75626;SDS011;64211;49.404;11.034;2022-11-15T08:55:09;11.48;;;5.22;;
75626;SDS011;64211;49.404;11.034;2022-11-15T08:57:35;11.20;;;4.95;;
75626;SDS011;64211;49.404;11.034;2022-11-15T09:00:01;9.18;;;4.97;;
75626;SDS011;64211;49.404;11.034;2022-11-15T09:02:26;8.38;;;4.47;;
75626;SDS011;64211;49.404;11.034;2022-11-15T09:04:52;9.38;;;4.82;;
75626;SDS011;64211;49.404;11.034;2022-11-15T09:07:18;8.70;;;4.80;;
75626;SDS011;64211;49.404;11.034;2022-11-15T09:09:44;11.63;;;5.40;;
75626;SDS011;64211;49.404;11.034;2022-11-15T09:12:09;9.10;;;4.80;;
75626;SDS011;64211;49.404;11.034;2022-11-15T09:14:35;7.68;;;4.90;;
75626;SDS011;64211;49.404;11.034;2022-11-15T09:17:01;10.80;;;5.30;;
75626;SDS011;64211;49.404;11.034;2022-11-15T09:19:27;9.43;;;4.97;;
75626;SDS011;64211;49.404;11.034;2022-11-15T09:21:52;8.63;;;4.72;;
75626;SDS011;64211;49.404;11.034;2022-11-15T09:24:18;8.65;;;4.78;;
75626;SDS011;64211;49.404;11.034;2022-11-15T09:26:44;7.22;;;4.22;;
75626;SDS011;64211;49.404;11.034;2022-11-15T09:29:10;7.65;;;4.20;;
75626;SDS011;64211;49.404;11.034;2022-11-15T09:31:36;7.88;;;4.47;;
75626;SDS011;64211;49.404;11.034;2022-11-15T09:34:01;9.23;;;4.78;;
75626;SDS011;64211;49.404;11.034;2022-11-15T09:36:27;6.10;;;3.90;;
75626;SDS011;64211;49.404;11.034;2022-11-15T09:38:53;6.68;;;3.83;;
75626;SDS011;64211;49.404;11.034;2022-11-15T09:41:34;7.65;;;4.47;;
75626;SDS011;64211;49.404;11.034;2022-11-15T09:50:09;8.73;;;4.50;;
75626;SDS011;64211;49.404;11.034;2022-11-15T09:52:39;5.63;;;3.83;;
75626;SDS011;64211;49.404;11.034;2022-11-15T09:55:08;5.97;;;3.80;;
75626;SDS011;64211;49.404;11.034;2022-11-15T09:57:41;6.68;;;3.75;;
75626;SDS011;64211;49.404;11.034;2022-11-15T10:00:20;6.50;;;4.22;;
75626;SDS011;64211;49.404;11.034;2022-11-15T10:05:49;6.82;;;3.80;;
75626;SDS011;64211;49.404;11.034;2022-11-15T10:08:40;7.63;;;3.80;;
75626;SDS011;64211;49.404;11.034;2022-11-15T10:11:13;5.13;;;3.38;;
75626;SDS011;64211;49.404;11.034;2022-11-15T10:14:10;13.45;;;6.43;;
75626;SDS011;64211;49.404;11.034;2022-11-15T10:24:58;8.90;;;4.45;;
75626;SDS011;64211;49.404;11.034;2022-11-15T10:31:03;4.82;;;2.90;;
75626;SDS011;64211;49.404;11.034;2022-11-15T10:33:46;5.75;;;3.10;;
75626;SDS011;64211;49.404;11.034;2022-11-15T10:41:19;5.15;;;3.10;;
75626;SDS011;64211;49.404;11.034;2022-11-15T10:46:36;4.20;;;3.00;;
75626;SDS011;64211;49.404;11.034;2022-11-15T10:51:42;4.75;;;2.53;;
75626;SDS011;64211;49.404;11.034;2022-11-15T10:54:11;4.00;;;2.63;;
75626;SDS011;64211;49.404;11.034;2022-11-15T10:56:48;7.88;;;4.43;;
75626;SDS011;64211;49.404;11.034;2022-11-15T10:59:22;7.45;;;4.00;;
75626;SDS011;64211;49.404;11.034;2022-11-15T11:01:51;3.92;;;2.63;;
75626;SDS011;64211;49.404;11.034;2022-11-15T11:04:17;5.28;;;3.10;;
75626;SDS011;64211;49.404;11.034;2022-11-15T11:11:56;9.13;;;3.63;;
75626;SDS011;64211;49.404;11.034;2022-11-15T11:14:23;6.28;;;3.03;;
75626;SDS011;64211;49.404;11.034;2022-11-15T11:17:03;6.38;;;3.60;;
75626;SDS011;64211;49.404;11.034;2022-11-15T11:19:37;5.15;;;2.90;;
75626;SDS011;64211;49.404;11.034;2022-11-15T11:22:17;5.50;;;3.03;;
75626;SDS011;64211;49.404;11.034;2022-11-15T11:25:04;4.72;;;2.78;;
75626;SDS011;64211;49.404;11.034;2022-11-15T11:27:43;5.65;;;3.45;;
75626;SDS011;64211;49.404;11.034;2022-11-15T11:33:24;4.60;;;2.65;;
75626;SDS011;64211;49.404;11.034;2022-11-15T11:36:10;3.72;;;2.97;;
75626;SDS011;64211;49.404;11.034;2022-11-15T11:38:51;3.97;;;2.33;;
75626;SDS011;64211;49.404;11.034;2022-11-15T11:41:27;4.47;;;2.47;;
75626;SDS011;64211;49.404;11.034;2022-11-15T11:49:45;6.15;;;2.88;;
75626;SDS011;64211;49.404;11.034;2022-11-15T11:57:39;4.47;;;2.22;;
75626;SDS011;64211;49.404;11.034;2022-11-15T12:00:21;3.03;;;1.77;;
75626;SDS011;64211;49.404;11.034;2022-11-15T12:02:57;3.30;;;2.20;;
75626;SDS011;64211;49.404;11.034;2022-11-15T12:05:49;5.95;;;2.80;;
75626;SDS011;64211;49.404;11.034;2022-11-15T12:08:33;6.32;;;2.38;;
75626;SDS011;64211;49.404;11.034;2022-11-15T12:11:12;2.58;;;1.63;;
75626;SDS011;64211;49.404;11.034;2022-11-15T12:13:43;4.10;;;2.25;;
75626;SDS011;64211;49.404;11.034;2022-11-15T12:16:16;3.03;;;2.00;;
75626;SDS011;64211;49.404;11.034;2022-11-15T12:18:50;3.13;;;2.13;;
75626;SDS011;64211;49.404;11.034;2022-11-15T12:21:24;5.63;;;1.80;;
75626;SDS011;64211;49.404;11.034;2022-11-15T12:24:34;3.38;;;1.85;;
75626;SDS011;64211;49.404;11.034;2022-11-15T12:27:24;2.97;;;1.85;;
75626;SDS011;64211;49.404;11.034;2022-11-15T12:30:00;2.45;;;1.60;;
75626;SDS011;64211;49.404;11.034;2022-11-15T12:32:34;2.55;;;1.85;;
75626;SDS011;64211;49.404;11.034;2022-11-15T12:35:03;2.95;;;1.95;;
75626;SDS011;64211;49.404;11.034;2022-11-15T12:42:40;5.35;;;3.30;;
75626;SDS011;64211;49.404;11.034;2022-11-15T12:48:44;2.90;;;2.05;;
75626;SDS011;64211;49.404;11.034;2022-11-15T13:01:08;3.15;;;1.75;;
75626;SDS011;64211;49.404;11.034;2022-11-15T13:03:36;3.80;;;2.30;;
75626;SDS011;64211;49.404;11.034;2022-11-15T13:06:41;2.70;;;1.90;;
75626;SDS011;64211;49.404;11.034;2022-11-15T13:11:53;2.22;;;1.70;;
75626;SDS011;64211;49.404;11.034;2022-11-15T13:19:48;3.25;;;2.00;;
75626;SDS011;64211;49.404;11.034;2022-11-15T13:22:19;3.88;;;1.95;;
75626;SDS011;64211;49.404;11.034;2022-11-15T13:25:03;3.22;;;1.92;;
75626;SDS011;64211;49.404;11.034;2022-11-15T13:27:40;2.88;;;2.08;;
75626;SDS011;64211;49.404;11.034;2022-11-15T13:30:12;4.93;;;2.42;;
75626;SDS011;64211;49.404;11.034;2022-11-15T13:32:41;4.13;;;2.20;;
75626;SDS011;64211;49.404;11.034;2022-11-15T13:35:07;3.05;;;2.15;;
75626;SDS011;64211;49.404;11.034;2022-11-15T13:37:33;3.15;;;2.47;;
75626;SDS011;64211;49.404;11.034;2022-11-15T13:42:56;3.15;;;2.00;;
75626;SDS011;64211;49.404;11.034;2022-11-15T13:45:23;4.57;;;2.30;;
75626;SDS011;64211;49.404;11.034;2022-11-15T13:47:57;4.35;;;2.53;;
75626;SDS011;64211;49.404;11.034;2022-11-15T13:50:27;4.55;;;2.90;;
75626;SDS011;64211;49.404;11.034;2022-11-15T13:52:58;11.65;;;5.55;;
75626;SDS011;64211;49.404;11.034;2022-11-15T13:55:28;3.60;;;2.40;;
75626;SDS011;64211;49.404;11.034;2022-11-15T13:57:58;5.43;;;2.65;;
75626;SDS011;64211;49.404;11.034;2022-11-15T14:00:43;4.00;;;2.30;;
75626;SDS011;64211;49.404;11.034;2022-11-15T14:03:32;3.63;;;2.58;;
75626;SDS011;64211;49.404;11.034;2022-11-15T14:08:33;27.40;;;12.27;;
75626;SDS011;64211;49.404;11.034;2022-11-15T14:13:33;10.73;;;6.22;;
75626;SDS011;64211;49.404;11.034;2022-11-15T14:16:15;8.70;;;5.32;;
75626;SDS011;64211;49.404;11.034;2022-11-15T14:18:45;9.85;;;5.65;;
75626;SDS011;64211;49.404;11.034;2022-11-15T14:21:13;4.57;;;2.92;;
75626;SDS011;64211;49.404;11.034;2022-11-15T14:23:39;8.07;;;4.40;;
75626;SDS011;64211;49.404;11.034;2022-11-15T14:26:05;4.90;;;3.17;;
75626;SDS011;64211;49.404;11.034;2022-11-15T14:28:37;6.68;;;3.83;;
75626;SDS011;64211;49.404;11.034;2022-11-15T14:31:07;5.72;;;3.50;;
75626;SDS011;64211;49.404;11.034;2022-11-15T14:33:38;6.50;;;3.67;;
75626;SDS011;64211;49.404;11.034;2022-11-15T14:36:14;6.15;;;3.90;;
75626;SDS011;64211;49.404;11.034;2022-11-15T14:38:42;9.00;;;4.80;;
75626;SDS011;64211;49.404;11.034;2022-11-15T14:41:17;7.50;;;3.80;;
75626;SDS011;64211;49.404;11.034;2022-11-15T14:43:45;6.65;;;4.35;;
75626;SDS011;64211;49.404;11.034;2022-11-15T14:46:11;5.63;;;3.22;;
75626;SDS011;64211;49.404;11.034;2022-11-15T14:48:37;4.80;;;2.90;;
75626;SDS011;64211;49.404;11.034;2022-11-15T14:51:02;4.93;;;2.80;;
75626;SDS011;64211;49.404;11.034;2022-11-15T14:53:28;4.68;;;2.70;;
75626;SDS011;64211;49.404;11.034;2022-11-15T14:55:54;5.30;;;3.17;;
75626;SDS011;64211;49.404;11.034;2022-11-15T14:58:20;5.05;;;3.42;;
75626;SDS011;64211;49.404;11.034;2022-11-15T15:00:45;6.32;;;3.45;;
75626;SDS011;64211;49.404;11.034;2022-11-15T15:03:11;9.40;;;4.10;;
75626;SDS011;64211;49.404;11.034;2022-11-15T15:05:41;8.15;;;4.07;;
75626;SDS011;64211;49.404;11.034;2022-11-15T15:08:08;8.45;;;4.75;;
75626;SDS011;64211;49.404;11.034;2022-11-15T15:10:36;15.55;;;7.38;;
75626;SDS011;64211;49.404;11.034;2022-11-15T15:13:10;19.92;;;8.73;;
75626;SDS011;64211;49.404;11.034;2022-11-15T15:15:42;17.60;;;8.35;;
75626;SDS011;64211;49.404;11.034;2022-11-15T15:18:07;17.15;;;8.13;;
75626;SDS011;64211;49.404;11.034;2022-11-15T15:20:37;10.57;;;4.68;;
75626;SDS011;64211;49.404;11.034;2022-11-15T15:23:05;7.15;;;3.95;;
75626;SDS011;64211;49.404;11.034;2022-11-15T15:25:34;11.77;;;5.07;;
75626;SDS011;64211;49.404;11.034;2022-11-15T15:28:01;8.30;;;4.15;;
75626;SDS011;64211;49.404;11.034;2022-11-15T15:30:28;12.65;;;5.40;;
75626;SDS011;64211;49.404;11.034;2022-11-15T15:32:55;15.18;;;5.90;;
75626;SDS011;64211;49.404;11.034;2022-11-15T15:35:21;8.95;;;4.95;;
75626;SDS011;64211;49.404;11.034;2022-11-15T15:37:47;9.10;;;4.47;;
75626;SDS011;64211;49.404;11.034;2022-11-15T15:40:18;13.85;;;5.55;;
75626;SDS011;64211;49.404;11.034;2022-11-15T15:42:46;10.52;;;5.38;;
75626;SDS011;64211;49.404;11.034;2022-11-15T15:45:12;11.82;;;5.22;;
75626;SDS011;64211;49.404;11.034;2022-11-15T15:47:39;8.85;;;4.75;;
75626;SDS011;64211;49.404;11.034;2022-11-15T15:50:19;11.02;;;4.13;;
75626;SDS011;64211;49.404;11.034;2022-11-15T15:52:48;9.00;;;4.47;;
75626;SDS011;64211;49.404;11.034;2022-11-15T15:55:14;12.35;;;5.47;;
75626;SDS011;64211;49.404;11.034;2022-11-15T15:57:40;13.15;;;5.93;;
75626;SDS011;64211;49.404;11.034;2022-11-15T16:00:06;11.93;;;5.47;;
75626;SDS011;64211;49.404;11.034;2022-11-15T16:02:33;11.05;;;5.05;;
75626;SDS011;64211;49.404;11.034;2022-11-15T16:05:05;10.93;;;6.15;;
75626;SDS011;64211;49.404;11.034;2022-11-15T16:07:32;10.93;;;5.53;;
75626;SDS011;64211;49.404;11.034;2022-11-15T16:09:58;9.70;;;4.63;;
75626;SDS011;64211;49.404;11.034;2022-11-15T16:12:27;11.02;;;5.78;;
75626;SDS011;64211;49.404;11.034;2022-11-15T16:14:56;13.23;;;6.30;;
75626;SDS011;64211;49.404;11.034;2022-11-15T16:17:27;19.65;;;9.07;;
75626;SDS011;64211;49.404;11.034;2022-11-15T16:19:59;35.28;;;15.68;;
75626;SDS011;64211;49.404;11.034;2022-11-15T16:22:25;21.90;;;9.65;;
75626;SDS011;64211;49.404;11.034;2022-11-15T16:24:51;16.88;;;8.68;;
75626;SDS011;64211;49.404;11.034;2022-11-15T16:27:17;16.63;;;8.23;;
75626;SDS011;64211;49.404;11.034;2022-11-15T16:29:45;16.92;;;8.85;;
75626;SDS011;64211;49.404;11.034;2022-11-15T16:32:12;17.35;;;9.45;;
75626;SDS011;64211;49.404;11.034;2022-11-15T16:34:38;18.30;;;9.20;;
75626;SDS011;64211;49.404;11.034;2022-11-15T16:37:21;21.70;;;11.43;;
75626;SDS011;64211;49.404;11.034;2022-11-15T16:39:48;28.75;;;12.25;;
75626;SDS011;64211;49.404;11.034;2022-11-15T16:42:13;20.50;;;9.55;;
75626;SDS011;64211;49.404;11.034;2022-11-15T16:44:39;22.77;;;11.45;;
75626;SDS011;64211;49.404;11.034;2022-11-15T16:47:10;20.80;;;11.35;;
75626;SDS011;64211;49.404;11.034;2022-11-15T16:49:42;19.10;;;10.52;;
75626;SDS011;64211;49.404;11.034;2022-11-15T16:52:08;16.15;;;9.77;;
75626;SDS011;64211;49.404;11.034;2022-11-15T16:54:34;15.60;;;9.82;;